Impacts TAF Board
For situational awareness. Not to be used for flight planning purposes.
IDs:

KJFK - New York/Kennedy Int, NY, US

Issued at 0525 UTC 03 Aug 2021
Updated at 0714 UTC 03 Aug 2021
Potential Impact None Slight Moderate High
Time0651Z 03/08Z 03/09Z 03/10Z 03/11Z 03/12Z 03/13Z 03/14Z 03/15Z 03/16Z 03/17Z 03/18Z 03/19Z 03/20Z>>
Type OBS PRVL PRVL PRVL PRVL PRVL PRVL PRVL PRVL PRVL PRVL PRVL PRVL PRVL
VIS 10 >6 >6 >6 >6 >6 >6 >6 >6 >6 >6 >6 >6 >6
CIG -- -- -- -- -- -- -- -- -- -- -- -- -- --
Cover FEW SCT SCT SCT SCT SCT SCT SCT SCT SCT SCT SCT SCT SCT
FltCat VFR VFR VFR VFR VFR VFR VFR VFR VFR VFR VFR VFR VFR VFR
WX -- -- -- -- -- -- -- -- -- -- -- -- -- --
WDir 350 VRB VRB VRB VRB VRB VRB VRB VRB VRB 180 180 180 180
WSpd 6 4 4 4 4 4 4 4 4 4 8 8 8 8
WGst -- -- -- -- -- -- -- -- -- -- -- -- -- --
Raw TAF
KJFK 030525Z 0306/0412 VRB04KT P6SM SCT060
  FM031700 18008KT P6SM FEW050 SCT250
  FM040300 VRB04KT P6SM BKN050


Raw METAR
KJFK 030651Z 35006KT 10SM FEW070 20/12 A3010 RMK AO2 SLP191 T02000117
KJFK 030551Z 36007KT 10SM SCT070 22/11 A3009 RMK AO2 SLP190 T02170106 10244 20217 50009
KJFK 030451Z 33008KT 10SM BKN070 22/11 A3010 RMK AO2 SLP193 T02220106 402780167

METAR Board
Radar Display
Forecast Discussion
For situational awareness. Not to be used for flight planning purposes.